createdAt,value
2023-02-09T00:01:54.774Z,42.39
2023-02-09T00:07:00.278Z,42.30
2023-02-09T00:12:22.901Z,42.14
2023-02-09T00:17:25.666Z,42.29
2023-02-09T00:22:28.632Z,42.28
2023-02-09T00:27:35.508Z,42.24
2023-02-09T00:32:39.565Z,42.34
2023-02-09T00:37:42.372Z,42.47
2023-02-09T00:42:46.549Z,42.65
2023-02-09T00:47:50.229Z,42.54
2023-02-09T00:52:53.226Z,42.41
2023-02-09T00:57:57.563Z,42.39
2023-02-09T01:03:00.359Z,42.71
2023-02-09T01:08:03.169Z,42.30
2023-02-09T01:13:07.396Z,42.60
2023-02-09T01:18:10.241Z,42.52
2023-02-09T01:23:13.012Z,42.42
2023-02-09T01:28:17.160Z,42.49
2023-02-09T01:33:19.926Z,42.86
2023-02-09T01:38:23.979Z,42.69
2023-02-09T01:43:28.264Z,42.98
2023-02-09T01:48:31.618Z,42.89
2023-02-09T01:53:34.403Z,43.07
2023-02-09T01:58:38.541Z,43.13
2023-02-09T02:03:41.334Z,43.48
2023-02-09T02:08:46.567Z,43.41
2023-02-09T02:13:50.660Z,43.47
2023-02-09T02:19:02.948Z,43.72
2023-02-09T02:24:19.971Z,43.99
2023-02-09T02:29:46.678Z,44.02
2023-02-09T02:34:52.363Z,44.18
2023-02-09T02:40:00.320Z,44.52
2023-02-09T02:45:12.451Z,44.85
2023-02-09T02:50:17.796Z,44.79
2023-02-09T02:55:21.403Z,45.16
2023-02-09T03:00:25.440Z,45.64
2023-02-09T03:05:29.755Z,45.53
2023-02-09T03:10:34.518Z,45.48
2023-02-09T03:15:44.008Z,45.91
2023-02-09T03:20:51.398Z,46.08
2023-02-09T03:25:54.197Z,46.12
2023-02-09T03:30:57.168Z,46.03
2023-02-09T03:36:02.274Z,46.02
2023-02-09T03:41:07.229Z,46.08
2023-02-09T03:46:10.887Z,45.80
2023-02-09T03:51:15.090Z,46.16
2023-02-09T03:56:17.931Z,46.25
2023-02-09T04:01:20.791Z,46.46
2023-02-09T04:06:25.190Z,46.60
2023-02-09T04:11:28.792Z,46.42
2023-02-09T04:16:32.008Z,46.51
2023-02-09T04:21:36.264Z,46.59
2023-02-09T04:26:39.126Z,46.66
2023-02-09T04:31:41.947Z,46.50
2023-02-09T04:36:46.130Z,46.29
2023-02-09T04:41:49.014Z,46.35
2023-02-09T04:46:51.807Z,46.62
2023-02-09T04:51:56.052Z,46.53
2023-02-09T04:57:12.944Z,46.62
2023-02-09T05:02:15.993Z,46.61
2023-02-09T05:07:20.183Z,46.62
2023-02-09T05:12:22.986Z,46.32
2023-02-09T05:17:25.894Z,46.50
2023-02-09T05:22:30.126Z,46.43
2023-02-09T05:27:32.876Z,46.51
2023-02-09T05:32:35.656Z,46.39
2023-02-09T05:37:39.781Z,46.52
2023-02-09T05:42:42.579Z,46.52
2023-02-09T05:47:45.327Z,46.29
2023-02-09T05:52:49.471Z,46.21
2023-02-09T05:57:52.232Z,46.39
2023-02-09T06:02:54.988Z,46.47
2023-02-09T06:07:59.174Z,46.29
2023-02-09T06:13:01.955Z,46.30
2023-02-09T06:18:05.012Z,46.39
2023-02-09T06:23:09.153Z,46.19
2023-02-09T06:28:12.064Z,46.16
2023-02-09T06:33:14.969Z,46.34
2023-02-09T06:38:19.105Z,46.52
2023-02-09T06:43:21.953Z,46.47
2023-02-09T06:48:24.773Z,46.20
2023-02-09T06:53:29.062Z,46.38
2023-02-09T06:58:31.865Z,46.40
2023-02-09T07:03:34.715Z,46.44
2023-02-09T07:08:38.873Z,46.50
2023-02-09T07:13:41.645Z,46.13
2023-02-09T07:18:44.601Z,46.41
2023-02-09T07:23:48.830Z,46.46
2023-02-09T07:28:51.625Z,46.37
2023-02-09T07:33:55.160Z,46.31
2023-02-09T07:38:59.567Z,46.51
2023-02-09T07:44:03.046Z,46.35
2023-02-09T07:49:05.817Z,46.36
2023-02-09T07:54:13.396Z,45.98
2023-02-09T07:59:16.557Z,45.67
2023-02-09T08:04:19.556Z,27.12
2023-02-09T08:09:23.742Z,27.53
2023-02-09T08:14:27.555Z,35.43
2023-02-09T08:19:30.362Z,34.64
2023-02-09T08:24:34.581Z,34.94
2023-02-09T08:29:37.368Z,34.88
2023-02-09T08:34:40.133Z,35.29
2023-02-09T08:39:45.168Z,35.41
2023-02-09T08:44:47.940Z,36.10
2023-02-09T08:49:51.563Z,36.37
2023-02-09T08:54:55.797Z,36.70
2023-02-09T08:59:58.543Z,37.36
2023-02-09T09:05:01.237Z,37.45
2023-02-09T09:10:06.107Z,37.83
2023-02-09T09:15:09.546Z,38.14
2023-02-09T09:20:12.745Z,38.33
2023-02-09T09:25:17.030Z,38.43
2023-02-09T09:30:20.197Z,38.69
2023-02-09T09:35:22.965Z,39.02
2023-02-09T09:40:28.913Z,39.45
2023-02-09T09:45:33.186Z,39.48
2023-02-09T09:50:38.159Z,39.62
2023-02-09T09:55:42.283Z,39.76
2023-02-09T10:00:45.025Z,39.73
2023-02-09T10:05:49.168Z,40.12
2023-02-09T10:10:56.386Z,40.23
2023-02-09T10:15:59.534Z,40.26
2023-02-09T10:21:03.350Z,40.42
2023-02-09T10:26:24.308Z,40.16
2023-02-09T10:31:33.312Z,40.38
2023-02-09T10:36:37.546Z,40.13
2023-02-09T10:41:43.681Z,40.56
2023-02-09T10:46:47.113Z,40.19
2023-02-09T10:51:51.097Z,40.02
2023-02-09T10:56:55.268Z,39.76
2023-02-09T11:01:58.865Z,39.42
2023-02-09T11:07:02.884Z,39.21
2023-02-09T11:12:07.422Z,39.21
2023-02-09T11:17:15.700Z,39.01
2023-02-09T11:22:20.351Z,38.98
2023-02-09T11:27:44.642Z,39.01
2023-02-09T11:32:49.392Z,38.97
2023-02-09T11:37:55.021Z,38.87
2023-02-09T11:43:07.944Z,38.68
2023-02-09T11:48:12.188Z,38.92
2023-02-09T11:53:21.224Z,38.77
2023-02-09T11:58:30.789Z,38.83
2023-02-09T12:03:33.566Z,38.97
2023-02-09T12:08:45.332Z,39.00
2023-02-09T12:13:58.509Z,39.51
2023-02-09T12:19:01.647Z,39.73
2023-02-09T12:24:04.520Z,39.88
2023-02-09T12:29:26.400Z,40.13
2023-02-09T12:34:30.382Z,40.16
2023-02-09T12:39:33.205Z,40.10
2023-02-09T12:44:54.709Z,40.11
2023-02-09T12:50:03.829Z,40.28
2023-02-09T12:55:24.332Z,40.03
2023-02-09T13:00:33.626Z,39.29
2023-02-09T13:05:39.108Z,39.33
2023-02-09T13:10:43.682Z,39.02
2023-02-09T13:15:51.611Z,38.66
2023-02-09T13:21:16.372Z,38.42
2023-02-09T13:26:20.512Z,38.02
2023-02-09T13:31:35.446Z,38.53
2023-02-09T13:36:40.476Z,38.62
2023-02-09T13:41:48.338Z,38.04
2023-02-09T13:46:57.085Z,38.63
2023-02-09T13:52:10.067Z,39.03
2023-02-09T13:57:19.182Z,39.13
2023-02-09T14:02:25.530Z,39.00
2023-02-09T14:07:30.349Z,39.18
2023-02-09T14:12:52.184Z,39.19
2023-02-09T14:17:56.608Z,38.79
2023-02-09T14:23:00.276Z,38.91
2023-02-09T14:28:03.528Z,38.97
2023-02-09T14:33:17.608Z,38.84
2023-02-09T14:38:35.084Z,38.88
2023-02-09T14:43:37.894Z,39.10
2023-02-09T14:48:42.089Z,38.90
2023-02-09T14:53:44.994Z,38.75
2023-02-09T14:58:47.815Z,38.85
2023-02-09T15:03:51.974Z,39.03
2023-02-09T15:08:54.810Z,39.16
2023-02-09T15:13:58.365Z,39.01
2023-02-09T15:19:04.775Z,39.19
2023-02-09T15:24:07.700Z,39.37
2023-02-09T15:29:12.215Z,39.47
2023-02-09T15:34:16.475Z,39.51
2023-02-09T15:39:20.853Z,39.52
2023-02-09T15:44:49.370Z,39.96
2023-02-09T15:49:54.641Z,40.11
2023-02-09T15:54:57.522Z,40.25
2023-02-09T16:00:00.290Z,40.52
2023-02-09T16:05:04.631Z,40.86
2023-02-09T16:10:08.235Z,41.30
2023-02-09T16:15:15.530Z,41.57
2023-02-09T16:20:20.409Z,41.85
2023-02-09T16:25:24.388Z,41.75
2023-02-09T16:30:28.365Z,41.98
2023-02-09T16:35:32.526Z,42.14
2023-02-09T16:40:35.328Z,42.04
2023-02-09T16:45:38.660Z,42.01
2023-02-09T16:50:46.823Z,41.98
2023-02-09T16:55:50.350Z,41.84
2023-02-09T17:00:53.487Z,41.92
2023-02-09T17:05:57.628Z,43.04
2023-02-09T17:11:00.869Z,43.06
2023-02-09T17:16:05.096Z,43.13
2023-02-09T17:21:10.646Z,43.33
2023-02-09T17:26:13.578Z,43.37
2023-02-09T17:31:18.056Z,43.73
2023-02-09T17:36:27.606Z,43.73
2023-02-09T17:41:33.911Z,43.78
2023-02-09T17:46:36.818Z,43.55
2023-02-09T17:51:41.797Z,43.50
2023-02-09T17:56:44.636Z,43.78
2023-02-09T18:01:49.686Z,43.90
2023-02-09T18:06:55.481Z,44.22
2023-02-09T18:12:02.013Z,44.05
2023-02-09T18:17:04.965Z,44.45
2023-02-09T18:22:11.832Z,44.53
2023-02-09T18:27:14.960Z,44.39
2023-02-09T18:32:18.208Z,44.57
2023-02-09T18:37:22.485Z,44.38
2023-02-09T18:42:25.419Z,44.49
2023-02-09T18:47:28.247Z,44.64
2023-02-09T18:52:32.409Z,44.56
2023-02-09T18:57:35.192Z,44.23
2023-02-09T19:02:38.330Z,43.95
2023-02-09T19:07:43.711Z,43.78
2023-02-09T19:12:46.708Z,43.29
2023-02-09T19:17:49.684Z,42.99
2023-02-09T19:22:53.898Z,42.77
2023-02-09T19:27:57.052Z,42.67
2023-02-09T19:33:00.173Z,42.56
2023-02-09T19:38:04.327Z,42.58
2023-02-09T19:43:07.364Z,42.10
2023-02-09T19:48:11.475Z,42.12
2023-02-09T19:53:15.745Z,42.15
2023-02-09T19:58:21.250Z,41.78
2023-02-09T20:03:24.216Z,41.70
2023-02-09T20:08:28.679Z,41.34
2023-02-09T20:13:31.550Z,41.55
2023-02-09T20:18:34.336Z,41.46
2023-02-09T20:23:38.618Z,41.28
2023-02-09T20:28:41.401Z,40.41
2023-02-09T20:33:44.275Z,40.56
2023-02-09T20:38:48.565Z,40.54
2023-02-09T20:44:09.067Z,40.65
2023-02-09T20:49:12.815Z,40.65
2023-02-09T20:54:17.052Z,40.51
2023-02-09T20:59:20.108Z,40.43
2023-02-09T21:04:23.042Z,40.53
2023-02-09T21:09:28.260Z,40.48
2023-02-09T21:14:41.556Z,40.57
2023-02-09T21:19:45.508Z,40.35
2023-02-09T21:24:49.804Z,40.04
2023-02-09T21:29:52.704Z,40.60
2023-02-09T21:34:55.462Z,40.85
2023-02-09T21:40:02.786Z,40.39
2023-02-09T21:45:07.772Z,40.52
2023-02-09T21:50:12.382Z,40.58
2023-02-09T21:55:17.007Z,40.46
2023-02-09T22:00:20.133Z,40.51
2023-02-09T22:05:22.998Z,40.39
2023-02-09T22:10:27.119Z,40.62
2023-02-09T22:15:29.977Z,40.62
2023-02-09T22:20:32.779Z,40.80
2023-02-09T22:25:37.023Z,40.82
2023-02-09T22:30:39.844Z,40.67
2023-02-09T22:35:42.631Z,40.75
2023-02-09T22:40:46.762Z,40.83
2023-02-09T22:45:55.799Z,41.21
2023-02-09T22:50:58.768Z,41.25
2023-02-09T22:56:04.209Z,41.12
2023-02-09T23:01:07.266Z,41.33
2023-02-09T23:06:11.870Z,41.26
2023-02-09T23:11:16.811Z,41.21
2023-02-09T23:16:20.536Z,41.33
2023-02-09T23:21:24.530Z,41.51
2023-02-09T23:26:28.662Z,41.61
2023-02-09T23:31:31.658Z,41.54
2023-02-09T23:36:34.926Z,41.53
2023-02-09T23:41:39.148Z,41.78
2023-02-09T23:46:41.962Z,41.88
2023-02-09T23:51:45.038Z,41.76
2023-02-09T23:56:49.854Z,41.76
